메인 페이지
METAR-TAF:

METAR-TAF

공항 :

Point Mugu, 캘리포니아, 미국

위도: 34-07-26N, 경도: 119-07-18W, 고도: 3m

현재 날씨관측

예보는 41분 전, 22:55시(UTC)에 발표되었습니다.
서남서11kt
온도 21°C
습도 73%
기압 1017 hPa
시정: 16.1km
고도 1000ft 상공 구름 조금
고도 10000ft 상공 구름 보통
고도 14000ft 상공 구름 보통

METAR: KNTD 142255Z COR 25011KT 10SM FEW010 SCT100 SCT140 21/16 A3003 RMK AO2 SLP169 T02060161 $

시각: 16:36 (23:36 UTC)

예보

예보 대상 시간: 14일 23시부터 15일 23시까지 (UTC)
9kt
시정 10km 이상
고도 1100ft 상공 구름 보통
고도 10000ft 상공 구름 많음
고도 14000ft 상공 구름 많음
일시적
14일 23시부터 15일 05시까지 (UTC)
고도 800ft 상공 구름 많음
고도 1100ft 상공 구름 많음
전환 중
15일 07시부터 15일 09시까지 (UTC)
9kt
시정: 4800m
고도 700ft 상공 구름 많음
고도 1100ft 상공 구름 많음
박무
일시적
15일 10시부터 15일 15시까지 (UTC)
시정: 1600m
고도 300ft 상공 흐림
이슬비, 박무
전환 중
15일 18시부터 15일 20시까지 (UTC)
12kt
시정 10km 이상
고도 1100ft 상공 구름 많음
고도 10000ft 상공 구름 많음
고도 16000ft 상공 흐림

TAF: KNTD 1423/1523 26009KT 9999 SCT011 BKN100 BKN140 QNH2998INS TEMPO 1423/1505 BKN008 BKN011 BECMG 1507/1509 28009KT 4800 BR BKN007 BKN011 QNH2996INS TEMPO 1510/1515 1600 DZ BR OVC003 BECMG 1518/1520 27012KT 9999 BKN011 BKN100 OVC160 QNH2998INS TX22/1521Z TN15/1512Z FS30190

4,000개 이상의 공항 관측 자료 및 예보 (METAR 및 TAF 보고).

지도상에서 검색 가능한 기상관측소가 노란 점과 빨간 점으로 표시되어 있습니다.

기상관측소 명을 보려면 표시 위로 마우스를 이동하세요.

날씨 관측과 예보를 보려면 클릭하세요.

지도 변경 : 확대하려면 엑스 표시가 있는 녹색 버튼, 축소하려면 빼기 표시가 있는 녹색 버튼, 다음 페이지의 지도를 보려면 녹색 화살표를 클릭하세요.


METAR-TAF: